createdAt,value
2022-11-21T00:00:06.961Z,50.923038
2022-11-21T00:01:06.920Z,50.923046
2022-11-21T00:02:06.961Z,50.923443
2022-11-21T00:03:06.901Z,50.923542
2022-11-21T00:04:06.899Z,50.923527
2022-11-21T00:05:06.907Z,50.923084
2022-11-21T00:06:06.882Z,50.923096
2022-11-21T00:07:07.944Z,50.923119
2022-11-21T00:08:06.865Z,50.923061
2022-11-21T00:09:06.852Z,50.923065
2022-11-21T00:10:06.868Z,50.922997
2022-11-21T00:11:06.837Z,50.922932
2022-11-21T00:12:06.823Z,50.922928
2022-11-21T00:13:06.822Z,50.922962
2022-11-21T00:14:06.813Z,50.923016
2022-11-21T00:15:06.838Z,50.923000
2022-11-21T00:16:06.792Z,50.922985
2022-11-21T00:17:06.790Z,50.923012
2022-11-21T00:18:06.778Z,50.923084
2022-11-21T00:19:06.766Z,50.923046
2022-11-21T00:20:06.793Z,50.923134
2022-11-21T00:21:06.753Z,50.923111
2022-11-21T00:22:06.744Z,50.923130
2022-11-21T00:23:06.737Z,50.923225
2022-11-21T00:24:06.735Z,50.923286
2022-11-21T00:25:06.753Z,50.923244
2022-11-21T00:26:06.717Z,50.923229
2022-11-21T00:27:06.700Z,50.923206
2022-11-21T00:28:06.693Z,50.923119
2022-11-21T00:29:06.691Z,50.923080
2022-11-21T00:30:06.718Z,50.923046
2022-11-21T00:31:06.672Z,50.923229
2022-11-21T00:32:06.671Z,50.923328
2022-11-21T00:33:06.654Z,50.923302
2022-11-21T00:34:06.659Z,50.922520
2022-11-21T00:35:06.671Z,50.922985
2022-11-21T00:36:06.638Z,50.922985
2022-11-21T00:37:06.629Z,50.923088
2022-11-21T00:38:06.618Z,50.923222
2022-11-21T00:39:06.610Z,50.923096
2022-11-21T00:40:06.610Z,50.923042
2022-11-21T00:41:06.843Z,50.923035
2022-11-21T00:42:06.588Z,50.923119
2022-11-21T00:43:06.570Z,50.923214
2022-11-21T00:44:06.570Z,50.922981
2022-11-21T00:45:06.568Z,50.923195
2022-11-21T00:46:06.582Z,50.923225
2022-11-21T00:47:06.538Z,50.923153
2022-11-21T00:48:06.554Z,50.923145
2022-11-21T00:49:06.530Z,50.923298
2022-11-21T00:50:06.556Z,50.923157
2022-11-21T00:51:06.509Z,50.923061
2022-11-21T00:52:06.504Z,50.922924
2022-11-21T00:53:06.500Z,50.923012
2022-11-21T00:54:06.488Z,50.922958
2022-11-21T00:55:06.474Z,50.923042
2022-11-21T00:56:06.501Z,50.922939
2022-11-21T00:57:06.462Z,50.922729
2022-11-21T00:58:06.453Z,50.922783
2022-11-21T00:59:06.442Z,50.922829
2022-11-21T01:00:06.434Z,50.922924
2022-11-21T01:01:06.509Z,50.922852
2022-11-21T01:02:06.418Z,50.922771
2022-11-21T01:03:06.409Z,50.923050
2022-11-21T01:04:06.398Z,50.922768
2022-11-21T01:05:06.385Z,50.922684
2022-11-21T01:06:06.407Z,50.922707
2022-11-21T01:07:06.400Z,50.923752
2022-11-21T01:08:06.361Z,50.923275
2022-11-21T01:09:06.356Z,50.922913
2022-11-21T01:10:06.356Z,50.922958
2022-11-21T01:11:06.379Z,50.922970
2022-11-21T01:12:06.331Z,50.922928
2022-11-21T01:13:06.322Z,50.922901
2022-11-21T01:14:06.312Z,50.922947
2022-11-21T01:15:06.302Z,50.923019
2022-11-21T01:16:07.339Z,50.922985
2022-11-21T01:17:06.285Z,50.923004
2022-11-21T01:18:06.288Z,50.922970
2022-11-21T01:19:06.278Z,50.922924
2022-11-21T01:20:06.266Z,50.922932
2022-11-21T01:21:06.291Z,50.922924
2022-11-21T01:22:06.245Z,50.922886
2022-11-21T01:23:06.244Z,50.922935
2022-11-21T01:24:06.230Z,50.922878
2022-11-21T01:25:06.224Z,50.922855
2022-11-21T01:26:06.265Z,50.922844
2022-11-21T01:27:06.211Z,50.922844
2022-11-21T01:28:06.200Z,50.922848
2022-11-21T01:29:06.196Z,50.922760
2022-11-21T01:30:06.183Z,50.922707
2022-11-21T01:31:06.207Z,50.922928
2022-11-21T01:32:06.165Z,50.922935
2022-11-21T01:33:06.168Z,50.922829
2022-11-21T01:34:06.148Z,50.922760
2022-11-21T01:35:06.140Z,50.922916
2022-11-21T01:36:06.170Z,50.922993
2022-11-21T01:37:06.123Z,50.922997
2022-11-21T01:38:06.122Z,50.922955
2022-11-21T01:39:06.117Z,50.922901
2022-11-21T01:40:06.101Z,50.922874
2022-11-21T01:41:06.118Z,50.922760
2022-11-21T01:42:06.084Z,50.922787
2022-11-21T01:43:06.069Z,50.922760
2022-11-21T01:44:06.080Z,50.922718
2022-11-21T01:45:06.059Z,50.923016
2022-11-21T01:46:06.077Z,50.923977
2022-11-21T01:47:06.044Z,50.923737
2022-11-21T01:48:06.032Z,50.923260
2022-11-21T01:49:06.020Z,50.923222
2022-11-21T01:50:10.433Z,50.923019
2022-11-21T01:51:08.037Z,50.923058
2022-11-21T01:52:05.998Z,50.923038
2022-11-21T01:53:06.001Z,50.922970
2022-11-21T01:54:05.980Z,50.922958
2022-11-21T01:55:05.974Z,50.922989
2022-11-21T01:56:07.025Z,50.923065
2022-11-21T01:57:06.942Z,50.922924
2022-11-21T01:58:06.968Z,50.922905
2022-11-21T01:59:05.944Z,50.922928
2022-11-21T02:00:05.921Z,50.923038
2022-11-21T02:01:07.010Z,50.923016
2022-11-21T02:02:05.912Z,50.923038
2022-11-21T02:03:05.904Z,50.922722
2022-11-21T02:04:05.898Z,50.922775
2022-11-21T02:05:05.881Z,50.922886
2022-11-21T02:06:05.923Z,50.922836
2022-11-21T02:07:05.903Z,50.922836
2022-11-21T02:08:06.863Z,50.922775
2022-11-21T02:09:05.855Z,50.922630
2022-11-21T02:10:05.852Z,50.922546
2022-11-21T02:11:05.881Z,50.922607
2022-11-21T02:12:05.824Z,50.922604
2022-11-21T02:13:05.819Z,50.922626
2022-11-21T02:14:05.809Z,50.922581
2022-11-21T02:15:05.807Z,50.922649
2022-11-21T02:16:05.884Z,50.922821
2022-11-21T02:17:05.789Z,50.923012
2022-11-21T02:18:05.791Z,50.922733
2022-11-21T02:19:05.773Z,50.923035
2022-11-21T02:20:05.766Z,50.923058
2022-11-21T02:21:05.782Z,50.923626
2022-11-21T02:22:05.745Z,50.923019
2022-11-21T02:23:05.736Z,50.922985
2022-11-21T02:24:05.726Z,50.922871
2022-11-21T02:25:05.725Z,50.922901
2022-11-21T02:26:05.739Z,50.922913
2022-11-21T02:27:05.699Z,50.922806
2022-11-21T02:28:05.691Z,50.922913
2022-11-21T02:29:05.687Z,50.922882
2022-11-21T02:30:05.676Z,50.922939
2022-11-21T02:31:05.697Z,50.922924
2022-11-21T02:32:05.669Z,50.922897
2022-11-21T02:33:05.727Z,50.923000
2022-11-21T02:34:05.643Z,50.923004
2022-11-21T02:35:05.638Z,50.922974
2022-11-21T02:36:05.670Z,50.922947
2022-11-21T02:37:05.621Z,50.922890
2022-11-21T02:38:05.622Z,50.923038
2022-11-21T02:39:05.607Z,50.922974
2022-11-21T02:40:05.603Z,50.922932
2022-11-21T02:41:05.591Z,50.922894
2022-11-21T02:42:33.765Z,50.922890
2022-11-21T02:43:05.574Z,50.922779
2022-11-21T02:44:05.567Z,50.922802
2022-11-21T02:45:05.551Z,50.922977
2022-11-21T02:46:05.555Z,50.922935
2022-11-21T02:47:05.572Z,50.922920
2022-11-21T02:48:05.542Z,50.922699
2022-11-21T02:49:05.524Z,50.922726
2022-11-21T02:50:05.518Z,50.922714
2022-11-21T02:51:05.518Z,50.922501
2022-11-21T02:52:05.532Z,50.922737
2022-11-21T02:53:05.536Z,50.922710
2022-11-21T02:54:05.489Z,50.922676
2022-11-21T02:55:05.473Z,50.922821
2022-11-21T02:56:05.474Z,50.923107
2022-11-21T02:57:05.502Z,50.922886
2022-11-21T02:58:05.763Z,50.922909
2022-11-21T02:59:05.443Z,50.922836
2022-11-21T03:00:05.442Z,50.923084
2022-11-21T03:01:05.461Z,50.923016
2022-11-21T03:02:05.449Z,50.922909
2022-11-21T03:03:05.410Z,50.922916
2022-11-21T03:04:05.397Z,50.922791
2022-11-21T03:05:05.396Z,50.922787
2022-11-21T03:06:05.384Z,50.923004
2022-11-21T03:07:05.427Z,50.923027
2022-11-21T03:08:05.364Z,50.923134
2022-11-21T03:09:05.365Z,50.923096
2022-11-21T03:10:05.355Z,50.922935
2022-11-21T03:11:05.342Z,50.922886
2022-11-21T03:12:05.363Z,50.922829
2022-11-21T03:13:05.326Z,50.922779
2022-11-21T03:14:05.319Z,50.922756
2022-11-21T03:15:05.315Z,50.922852
2022-11-21T03:16:05.304Z,50.922787
2022-11-21T03:17:05.317Z,50.922813
2022-11-21T03:18:05.289Z,50.922768
2022-11-21T03:19:05.279Z,50.922813
2022-11-21T03:20:05.272Z,50.922829
2022-11-21T03:21:05.264Z,50.922859
2022-11-21T03:22:05.297Z,50.922970
2022-11-21T03:23:05.247Z,50.922997
2022-11-21T03:24:05.237Z,50.923065
2022-11-21T03:25:05.227Z,50.923000
2022-11-21T03:26:05.224Z,50.923016
2022-11-21T03:27:05.278Z,50.923050
2022-11-21T03:28:05.265Z,50.923031
2022-11-21T03:29:05.200Z,50.922966
2022-11-21T03:30:05.191Z,50.922935
2022-11-21T03:31:05.179Z,50.922897
2022-11-21T03:32:05.198Z,50.922920
2022-11-21T03:33:05.165Z,50.922997
2022-11-21T03:34:05.161Z,50.923031
2022-11-21T03:35:05.165Z,50.923058
2022-11-21T03:36:05.142Z,50.923038
2022-11-21T03:37:05.170Z,50.923000
2022-11-21T03:38:05.141Z,50.923031
2022-11-21T03:39:05.118Z,50.923038
2022-11-21T03:40:05.111Z,50.923054
2022-11-21T03:41:05.103Z,50.922970
2022-11-21T03:42:05.132Z,50.923069
2022-11-21T03:43:05.173Z,50.922985
2022-11-21T03:44:05.089Z,50.923050
2022-11-21T03:45:05.074Z,50.923080
2022-11-21T03:46:05.060Z,50.923023
2022-11-21T03:47:05.087Z,50.923000
2022-11-21T03:48:05.048Z,50.923035
2022-11-21T03:49:05.043Z,50.923100
2022-11-21T03:50:05.033Z,50.922974
2022-11-21T03:51:05.018Z,50.923016
2022-11-21T03:52:05.008Z,50.923080
2022-11-21T03:53:05.028Z,50.923019
2022-11-21T03:54:04.996Z,50.922966
2022-11-21T03:55:04.981Z,50.922867
2022-11-21T03:56:04.977Z,50.923000
2022-11-21T03:57:04.970Z,50.923050
2022-11-21T03:58:05.090Z,50.923016
2022-11-21T03:59:04.950Z,50.923088
2022-11-21T04:00:04.946Z,50.922935
2022-11-21T04:01:04.994Z,50.923042
2022-11-21T04:02:04.924Z,50.923092
2022-11-21T04:03:04.950Z,50.922890
2022-11-21T04:04:04.927Z,50.922882
2022-11-21T04:05:04.903Z,50.922935
2022-11-21T04:06:04.898Z,50.923031
2022-11-21T04:07:04.919Z,50.923042
2022-11-21T04:08:04.966Z,50.923023
2022-11-21T04:09:04.875Z,50.922966
2022-11-21T04:10:04.860Z,50.922924
2022-11-21T04:11:04.856Z,50.922951
2022-11-21T04:12:07.675Z,50.922943
2022-11-21T04:13:05.865Z,50.922920
2022-11-21T04:14:04.831Z,50.923443
2022-11-21T04:15:09.255Z,50.923344
2022-11-21T04:16:05.809Z,50.922966
2022-11-21T04:17:04.802Z,50.923031
2022-11-21T04:18:04.827Z,50.923061
2022-11-21T04:19:04.784Z,50.923058
2022-11-21T04:20:04.782Z,50.923042
2022-11-21T04:21:04.786Z,50.923035
2022-11-21T04:22:04.810Z,50.922905
2022-11-21T04:23:04.782Z,50.922832
2022-11-21T04:24:04.752Z,50.923058
2022-11-21T04:25:04.736Z,50.923012
2022-11-21T04:26:04.723Z,50.923073
2022-11-21T04:27:04.710Z,50.923119
2022-11-21T04:28:04.739Z,50.922935
2022-11-21T04:29:04.707Z,50.922863
2022-11-21T04:30:04.696Z,50.922867
2022-11-21T04:31:09.822Z,50.922935
2022-11-21T04:32:06.677Z,50.922939
2022-11-21T04:33:04.718Z,50.922966
2022-11-21T04:34:04.647Z,50.922997
2022-11-21T04:35:05.657Z,50.922951
2022-11-21T04:36:04.644Z,50.922890
2022-11-21T04:37:10.174Z,50.922829
2022-11-21T04:38:06.652Z,50.922882
2022-11-21T04:39:04.610Z,50.922829
2022-11-21T04:40:04.611Z,50.922958
2022-11-21T04:41:04.592Z,50.923012
2022-11-21T04:42:05.597Z,50.923080
2022-11-21T04:43:04.610Z,50.923149
2022-11-21T04:44:04.572Z,50.923012
2022-11-21T04:45:04.566Z,50.922985
2022-11-21T04:46:04.569Z,50.923031
2022-11-21T04:47:05.755Z,50.923111
2022-11-21T04:48:05.578Z,50.923115
2022-11-21T04:49:04.535Z,50.923073
2022-11-21T04:50:04.528Z,50.923111
2022-11-21T04:51:04.516Z,50.923061
2022-11-21T04:52:04.511Z,50.923157
2022-11-21T04:53:04.530Z,50.923199
2022-11-21T04:54:04.494Z,50.923115
2022-11-21T04:55:04.488Z,50.922977
2022-11-21T04:56:04.492Z,50.922966
2022-11-21T04:57:04.470Z,50.923027
2022-11-21T04:58:04.491Z,50.923065
2022-11-21T04:59:04.455Z,50.923012
2022-11-21T05:00:04.442Z,50.922985
2022-11-21T05:01:04.481Z,50.923000
2022-11-21T05:02:04.428Z,50.923004
2022-11-21T05:03:04.444Z,50.922974
2022-11-21T05:04:05.421Z,50.922962
2022-11-21T05:05:04.405Z,50.922997
2022-11-21T05:06:04.402Z,50.922989
2022-11-21T05:07:04.433Z,50.922966
2022-11-21T05:08:04.412Z,50.923119
2022-11-21T05:09:04.371Z,50.923012
2022-11-21T05:10:04.368Z,50.923023
2022-11-21T05:11:04.359Z,50.923004
2022-11-21T05:12:04.346Z,50.922974
2022-11-21T05:13:04.366Z,50.923038
2022-11-21T05:14:04.326Z,50.923027
2022-11-21T05:15:04.321Z,50.922989
2022-11-21T05:16:04.314Z,50.923004
2022-11-21T05:17:04.302Z,50.922966
2022-11-21T05:18:04.327Z,50.923065
2022-11-21T05:19:04.284Z,50.923103
2022-11-21T05:20:04.292Z,50.922924
2022-11-21T05:21:04.271Z,50.922970
2022-11-21T05:22:04.265Z,50.923058
2022-11-21T05:23:04.284Z,50.923050
2022-11-21T05:24:04.248Z,50.923069
2022-11-21T05:25:04.233Z,50.922787
2022-11-21T05:26:04.240Z,50.922970
2022-11-21T05:27:04.224Z,50.922962
2022-11-21T05:28:04.247Z,50.923061
2022-11-21T05:29:04.202Z,50.923050
2022-11-21T05:30:04.199Z,50.923016
2022-11-21T05:31:04.186Z,50.922989
2022-11-21T05:32:04.181Z,50.922962
2022-11-21T05:33:04.203Z,50.922981
2022-11-21T05:34:04.155Z,50.923000
2022-11-21T05:35:05.155Z,50.923035
2022-11-21T05:36:27.950Z,50.923008
2022-11-21T05:37:04.141Z,50.922878
2022-11-21T05:38:04.159Z,50.922974
2022-11-21T05:39:04.123Z,50.922894
2022-11-21T05:40:04.111Z,50.923031
2022-11-21T05:41:04.100Z,50.922897
2022-11-21T05:42:04.111Z,50.922909
2022-11-21T05:43:04.107Z,50.922794
2022-11-21T05:44:05.087Z,50.922890
2022-11-21T05:45:04.077Z,50.922897
2022-11-21T05:46:04.068Z,50.922916
2022-11-21T05:47:04.062Z,50.923027
2022-11-21T05:48:04.093Z,50.923016
2022-11-21T05:49:04.049Z,50.922798
2022-11-21T05:50:04.035Z,50.922924
2022-11-21T05:51:04.031Z,50.923008
2022-11-21T05:52:04.015Z,50.923042
2022-11-21T05:53:04.044Z,50.922970
2022-11-21T05:54:04.002Z,50.923042
2022-11-21T05:55:03.997Z,50.922924
2022-11-21T05:56:03.989Z,50.922974
2022-11-21T05:57:03.977Z,50.922943
2022-11-21T05:58:04.005Z,50.922974
2022-11-21T05:59:03.952Z,50.923447
2022-11-21T06:00:03.945Z,50.922997
2022-11-21T06:01:03.933Z,50.923012
2022-11-21T06:02:04.928Z,50.922924
2022-11-21T06:03:03.962Z,50.923023
2022-11-21T06:04:03.942Z,50.923126
2022-11-21T06:05:03.905Z,50.923050
2022-11-21T06:06:03.897Z,50.922966
2022-11-21T06:07:03.939Z,50.922817
2022-11-21T06:08:03.888Z,50.922970
2022-11-21T06:09:03.918Z,50.923115
2022-11-21T06:10:03.866Z,50.922810
2022-11-21T06:11:03.856Z,50.923046
2022-11-21T06:12:03.850Z,50.923073
2022-11-21T06:13:03.843Z,50.922581
2022-11-21T06:14:03.861Z,50.922897
2022-11-21T06:15:03.826Z,50.922810
2022-11-21T06:16:03.812Z,50.922657
2022-11-21T06:17:03.806Z,50.922741
2022-11-21T06:18:03.793Z,50.922676
2022-11-21T06:19:03.912Z,50.922619
2022-11-21T06:20:03.786Z,50.922787
2022-11-21T06:21:03.773Z,50.922867
2022-11-21T06:22:03.762Z,50.922951
2022-11-21T06:23:03.755Z,50.922981
2022-11-21T06:24:03.812Z,50.923050
2022-11-21T06:25:03.741Z,50.922958
2022-11-21T06:26:03.734Z,50.922741
2022-11-21T06:27:03.724Z,50.922710
2022-11-21T06:28:03.713Z,50.922638
2022-11-21T06:29:03.741Z,50.922958
2022-11-21T06:30:03.694Z,50.923401
2022-11-21T06:31:03.698Z,50.923782
2022-11-21T06:32:03.687Z,50.923199
2022-11-21T06:33:03.756Z,50.923126
2022-11-21T06:34:03.697Z,50.923038
2022-11-21T06:35:03.654Z,50.923107
2022-11-21T06:36:03.651Z,50.923214
2022-11-21T06:37:03.640Z,50.923012
2022-11-21T06:38:03.626Z,50.922848
2022-11-21T06:39:03.649Z,50.922581
2022-11-21T06:40:03.611Z,50.922768
2022-11-21T06:41:03.609Z,50.923161
2022-11-21T06:42:03.598Z,50.923103
2022-11-21T06:43:03.582Z,50.923038
2022-11-21T06:44:03.609Z,50.923004
2022-11-21T06:45:03.567Z,50.922955
2022-11-21T06:46:03.558Z,50.922955
2022-11-21T06:47:03.553Z,50.922432
2022-11-21T06:48:03.555Z,50.922783
2022-11-21T06:49:03.613Z,50.923908
2022-11-21T06:50:03.530Z,50.924274
2022-11-21T06:51:03.518Z,50.923885
2022-11-21T06:52:03.505Z,50.923153
2022-11-21T06:53:03.505Z,50.923058
2022-11-21T06:54:03.525Z,50.923096
2022-11-21T06:55:03.486Z,50.922867
2022-11-21T06:56:03.488Z,50.922779
2022-11-21T06:57:03.465Z,50.922855
2022-11-21T06:58:03.459Z,50.923004
2022-11-21T06:59:03.483Z,50.922909
2022-11-21T07:00:03.452Z,50.922928
2022-11-21T07:01:03.483Z,50.922974
2022-11-21T07:02:03.429Z,50.922794
2022-11-21T07:03:03.719Z,50.922901
2022-11-21T07:04:03.525Z,50.922932
2022-11-21T07:05:04.397Z,50.922894
2022-11-21T07:06:03.409Z,50.922901
2022-11-21T07:07:03.420Z,50.922871
2022-11-21T07:08:03.377Z,50.922958
2022-11-21T07:09:32.814Z,50.922909
2022-11-21T07:10:05.366Z,50.922848
2022-11-21T07:11:24.227Z,50.922802
2022-11-21T07:12:05.339Z,50.922821
2022-11-21T07:13:03.337Z,50.922836
2022-11-21T07:14:08.837Z,50.922894
2022-11-21T07:15:05.318Z,50.922966
2022-11-21T07:16:03.317Z,50.922913
2022-11-21T07:17:03.300Z,50.922974
2022-11-21T07:18:03.293Z,50.922832
2022-11-21T07:19:03.320Z,50.922825
2022-11-21T07:20:03.273Z,50.922897
2022-11-21T07:21:03.273Z,50.922943
2022-11-21T07:22:03.257Z,50.922825
2022-11-21T07:23:03.253Z,50.922871
2022-11-21T07:24:03.274Z,50.922829
2022-11-21T07:25:03.235Z,50.922985
2022-11-21T07:26:03.221Z,50.922844
2022-11-21T07:27:03.215Z,50.922832
2022-11-21T07:28:03.210Z,50.922817
2022-11-21T07:29:03.382Z,50.922905
2022-11-21T07:30:03.191Z,50.922874
2022-11-21T07:31:07.051Z,50.922722
2022-11-21T07:32:04.169Z,50.922924
2022-11-21T07:33:03.178Z,50.922966
2022-11-21T07:34:03.150Z,50.922962
2022-11-21T07:35:03.179Z,50.922909
2022-11-21T07:36:03.131Z,50.923027
2022-11-21T07:37:05.274Z,50.923042
2022-11-21T07:38:04.131Z,50.922909
2022-11-21T07:39:03.118Z,50.922962
2022-11-21T07:40:03.142Z,50.922699
2022-11-21T07:41:03.109Z,50.922775
2022-11-21T07:42:03.093Z,50.922913
2022-11-21T07:43:07.946Z,50.923027
2022-11-21T07:44:05.078Z,50.922909
2022-11-21T07:45:03.098Z,50.922894
2022-11-21T07:46:03.073Z,50.922974
2022-11-21T07:47:03.056Z,50.922977
2022-11-21T07:48:03.049Z,50.922775
2022-11-21T07:49:03.757Z,50.922840
2022-11-21T07:50:04.056Z,50.922863
2022-11-21T07:51:03.033Z,50.922932
2022-11-21T07:52:03.005Z,50.923008
2022-11-21T07:53:03.002Z,50.922928
2022-11-21T07:54:02.983Z,50.922939
2022-11-21T07:55:03.014Z,50.922939
2022-11-21T07:56:02.968Z,50.922958
2022-11-21T07:57:02.959Z,50.923023
2022-11-21T07:58:02.956Z,50.922981
2022-11-21T07:59:02.947Z,50.922955
2022-11-21T08:00:02.968Z,50.922947
2022-11-21T08:01:02.923Z,50.922897
2022-11-21T08:02:03.967Z,50.922832
2022-11-21T08:03:02.910Z,50.922825
2022-11-21T08:04:02.896Z,50.922817
2022-11-21T08:05:02.922Z,50.922909
2022-11-21T08:06:02.900Z,50.923103
2022-11-21T08:07:02.900Z,50.922886
2022-11-21T08:08:02.870Z,50.922791
2022-11-21T08:09:02.860Z,50.922829
2022-11-21T08:10:02.884Z,50.922939
2022-11-21T08:11:02.845Z,50.923306
2022-11-21T08:12:02.843Z,50.923531
2022-11-21T08:13:02.829Z,50.923660
2022-11-21T08:14:02.819Z,50.923538
2022-11-21T08:15:02.844Z,50.923584
2022-11-21T08:16:02.804Z,50.923649
2022-11-21T08:17:02.795Z,50.923622
2022-11-21T08:27:48.295Z,50.923454
2022-11-21T08:28:48.291Z,50.923248
2022-11-21T08:29:48.303Z,50.923180
2022-11-21T08:30:48.282Z,50.922802
2022-11-21T08:31:48.266Z,50.923023
2022-11-21T08:32:48.262Z,50.923027
2022-11-21T08:33:48.253Z,50.923023
2022-11-21T08:34:48.278Z,50.923077
2022-11-21T08:35:48.253Z,50.923069
2022-11-21T08:36:48.229Z,50.923050
2022-11-21T08:37:48.220Z,50.923038
2022-11-21T08:38:48.208Z,50.923042
2022-11-21T08:39:48.224Z,50.922894
2022-11-21T08:40:48.209Z,50.923027
2022-11-21T08:41:48.180Z,50.922997
2022-11-21T08:42:48.169Z,50.923004
2022-11-21T08:43:48.165Z,50.923046
2022-11-21T08:44:48.195Z,50.923042
2022-11-21T08:45:48.148Z,50.923012
2022-11-21T08:46:48.144Z,50.922924
2022-11-21T08:47:48.129Z,50.922920
2022-11-21T08:48:48.142Z,50.923096
2022-11-21T08:49:48.131Z,50.922924
2022-11-21T08:50:48.139Z,50.923222
2022-11-21T08:51:48.132Z,50.923080
2022-11-21T08:52:48.094Z,50.923023
2022-11-21T08:53:48.105Z,50.923061
2022-11-21T08:54:48.076Z,50.923084
2022-11-21T08:55:48.093Z,50.923096
2022-11-21T08:56:48.080Z,50.923176
2022-11-21T08:57:48.055Z,50.923161
2022-11-21T08:58:48.051Z,50.923084
2022-11-21T08:59:48.039Z,50.923138
2022-11-21T09:00:48.055Z,50.922951
2022-11-21T09:01:48.068Z,50.922890
2022-11-21T09:02:48.012Z,50.923000
2022-11-21T09:11:33.509Z,50.923035
2022-11-21T09:12:33.503Z,50.923122
2022-11-21T09:13:33.489Z,50.923058
2022-11-21T09:14:33.486Z,50.923027
2022-11-21T09:16:20.269Z,50.922985
2022-11-21T09:16:33.469Z,50.922993
2022-11-21T09:17:33.465Z,50.923061
2022-11-21T09:18:33.454Z,50.922935
2022-11-21T09:19:33.445Z,50.923054
2022-11-21T09:20:33.552Z,50.922977
2022-11-21T09:21:33.422Z,50.922977
2022-11-21T09:22:33.419Z,50.922924
2022-11-21T09:23:33.414Z,50.922844
2022-11-21T09:24:33.401Z,50.922977
2022-11-21T09:25:33.435Z,50.922943
2022-11-21T09:26:33.385Z,50.923031
2022-11-21T09:27:33.382Z,50.923161
2022-11-21T09:28:33.364Z,50.923008
2022-11-21T09:29:33.361Z,50.923019
2022-11-21T09:30:33.384Z,50.923088
2022-11-21T09:31:33.351Z,50.923012
2022-11-21T09:32:41.987Z,50.923016
2022-11-21T09:33:34.339Z,50.922966
2022-11-21T09:34:33.317Z,50.922981
2022-11-21T09:35:33.408Z,50.922993
2022-11-21T09:36:33.293Z,50.923012
2022-11-21T09:37:34.295Z,50.923008
2022-11-21T09:38:33.301Z,50.923008
2022-11-21T09:39:33.274Z,50.922974
2022-11-21T09:40:33.307Z,50.923016
2022-11-21T09:41:33.265Z,50.923149
2022-11-21T09:42:33.255Z,50.923134
2022-11-21T09:43:33.251Z,50.923080
2022-11-21T09:44:33.240Z,50.923038
2022-11-21T09:45:33.260Z,50.923130
2022-11-21T09:46:33.224Z,50.923058
2022-11-21T09:47:33.272Z,50.922951
2022-11-21T09:48:33.204Z,50.922966
2022-11-21T09:49:33.198Z,50.922993
2022-11-21T09:50:33.220Z,50.922962
2022-11-21T09:51:33.179Z,50.922924
2022-11-21T09:52:33.167Z,50.922993
2022-11-21T09:53:33.162Z,50.923111
2022-11-21T09:54:33.163Z,50.923077
2022-11-21T09:55:33.228Z,50.923103
2022-11-21T09:56:33.113Z,50.922958
2022-11-21T09:57:35.159Z,50.922943
2022-11-21T09:58:34.126Z,50.922901
2022-11-21T09:59:33.113Z,50.922798
2022-11-21T10:00:33.175Z,50.922787
2022-11-21T10:01:33.191Z,50.923042
2022-11-21T10:02:33.089Z,50.923103
2022-11-21T10:26:23.004Z,50.922989
2022-11-21T10:27:21.958Z,50.923038
2022-11-21T10:28:21.958Z,50.923073
2022-11-21T10:29:21.954Z,50.922970
2022-11-21T10:30:21.930Z,50.923038
2022-11-21T10:31:21.925Z,50.923069
2022-11-21T10:32:21.946Z,50.923092
2022-11-21T10:33:21.913Z,50.923004
2022-11-21T10:34:21.898Z,50.923046
2022-11-21T10:35:21.893Z,50.923035
2022-11-21T10:36:21.879Z,50.923153
2022-11-21T10:37:21.909Z,50.923077
2022-11-21T10:38:21.862Z,50.923054
2022-11-21T10:39:21.859Z,50.923046
2022-11-21T10:40:21.852Z,50.923050
2022-11-21T10:41:21.841Z,50.923035
2022-11-21T10:42:24.722Z,50.922993
2022-11-21T10:43:22.826Z,50.923004
2022-11-21T10:44:21.818Z,50.922993
2022-11-21T10:45:21.804Z,50.922977
2022-11-21T10:46:21.812Z,50.922989
2022-11-21T10:47:21.813Z,50.923004
2022-11-21T10:48:21.783Z,50.923084
2022-11-21T10:49:21.777Z,50.923111
2022-11-21T10:50:21.764Z,50.923016
2022-11-21T10:51:21.754Z,50.923084
2022-11-21T10:52:21.785Z,50.923000
2022-11-21T10:53:21.745Z,50.923061
2022-11-21T10:54:21.726Z,50.922970
2022-11-21T10:55:21.719Z,50.923031
2022-11-21T10:56:21.714Z,50.923054
2022-11-21T10:57:21.720Z,50.922947
2022-11-21T10:58:21.692Z,50.923031
2022-11-21T10:59:25.652Z,50.923046
2022-11-21T11:00:22.670Z,50.923046
2022-11-21T11:01:21.780Z,50.922997
2022-11-21T11:02:21.690Z,50.923038
2022-11-21T11:03:21.645Z,50.922989
2022-11-21T11:04:45.727Z,50.923016
2022-11-21T11:05:23.650Z,50.923050
2022-11-21T11:06:21.625Z,50.923107
2022-11-21T11:07:21.754Z,50.923122
2022-11-21T11:08:21.605Z,50.923061
2022-11-21T11:09:21.601Z,50.922943
2022-11-21T11:10:26.875Z,50.922951
2022-11-21T11:11:23.578Z,50.922890
2022-11-21T11:12:21.619Z,50.922916
2022-11-21T11:13:45.252Z,50.922997
2022-11-21T11:14:23.558Z,50.923012
2022-11-21T11:15:21.554Z,50.923035
2022-11-21T11:16:22.259Z,50.923069
2022-11-21T11:17:21.585Z,50.923042
2022-11-21T11:18:21.526Z,50.922974
2022-11-21T11:19:24.359Z,50.923023
2022-11-21T11:20:23.510Z,50.923092
2022-11-21T11:21:21.513Z,50.923027
2022-11-21T11:22:21.490Z,50.922928
2022-11-21T11:23:21.508Z,50.922913
2022-11-21T11:24:21.469Z,50.922924
2022-11-21T11:25:21.460Z,50.923042
2022-11-21T11:26:21.446Z,50.922997
2022-11-21T11:27:21.446Z,50.923153
2022-11-21T11:28:21.460Z,50.923035
2022-11-21T11:29:21.434Z,50.922962
2022-11-21T11:30:21.428Z,50.923016
2022-11-21T11:31:21.418Z,50.922928
2022-11-21T11:32:22.166Z,50.923019
2022-11-21T11:33:22.426Z,50.922787
2022-11-21T11:34:21.381Z,50.922928
2022-11-21T11:35:21.380Z,50.923027
2022-11-21T11:36:21.369Z,50.922752
2022-11-21T11:37:21.364Z,50.922729
2022-11-21T11:38:21.373Z,50.922874
2022-11-21T11:39:21.344Z,50.922817
2022-11-21T11:40:21.349Z,50.922829
2022-11-21T11:41:21.330Z,50.922760
2022-11-21T11:42:21.318Z,50.922501
2022-11-21T11:43:21.335Z,50.922577
2022-11-21T11:44:21.298Z,50.922791
2022-11-21T11:45:21.303Z,50.922909
2022-11-21T11:46:21.287Z,50.922771
2022-11-21T11:47:21.271Z,50.922943
2022-11-21T11:48:21.290Z,50.922882
2022-11-21T11:49:21.852Z,50.923180
2022-11-21T11:50:21.242Z,50.922920
2022-11-21T11:51:21.240Z,50.922852
2022-11-21T11:52:21.227Z,50.922798
2022-11-21T11:53:21.249Z,50.922741
2022-11-21T11:54:21.211Z,50.922958
2022-11-21T11:55:21.211Z,50.923183
2022-11-21T11:56:21.204Z,50.922932
2022-11-21T11:57:21.186Z,50.922890
2022-11-21T11:58:21.213Z,50.922985
2022-11-21T11:59:21.172Z,50.922920
2022-11-21T12:00:21.167Z,50.922913
2022-11-21T12:01:21.157Z,50.922932
2022-11-21T12:02:21.217Z,50.922840
2022-11-21T12:03:21.175Z,50.923035
2022-11-21T12:04:21.136Z,50.922848